Saint Martin, Minnesota
Current Conditions -  °F | °C
As of 4:54 AM on Monday 20 Oct 2014 (Local Time) from KPEX Reporting Station
Clear Clear  
Wind Chill: 30°   Ceiling: Unl
Heat Index: 36°   Visibility: 10mi
Dew Point: 35°   Wind: 7mph
Humidity: 98%   Direction: 230°SW
Pressure: 29.96"   Gusts: NA
Location:  45.5°N, 94.67°W
Report Text: KPEX 200954Z AUTO 23006KT 10SM CLR 02/02 A2996 RMK AO2 T00210018
Loading
Personal Weather Stations






























Interactive Weather Map
Tropical Storm Tracking
New forecast layout! Learn more

10-Day Weather Forecast

Advertisements
Track Severe Weather on mobile